createdAt,value
2023-05-13T00:02:20.075Z,6.66
2023-05-13T00:04:48.325Z,6.63
2023-05-13T00:07:16.483Z,6.62
2023-05-13T00:09:44.773Z,6.58
2023-05-13T00:12:14.341Z,6.56
2023-05-13T00:14:42.542Z,6.55
2023-05-13T00:17:10.928Z,6.55
2023-05-13T00:19:39.701Z,6.56
2023-05-13T00:22:08.180Z,6.57
2023-05-13T00:24:36.563Z,6.57
2023-05-13T00:27:04.951Z,6.58
2023-05-13T00:29:34.441Z,6.58
2023-05-13T00:32:02.942Z,6.57
2023-05-13T00:34:31.103Z,6.60
2023-05-13T00:36:59.689Z,6.60
2023-05-13T00:39:28.900Z,6.59
2023-05-13T00:41:57.041Z,6.57
2023-05-13T00:44:25.022Z,6.58
2023-05-13T00:46:55.011Z,6.58
2023-05-13T00:49:23.217Z,6.59
2023-05-13T00:51:52.990Z,6.55
2023-05-13T00:54:22.505Z,6.56
2023-05-13T00:56:54.440Z,6.57
2023-05-13T00:59:22.601Z,6.56
2023-05-13T01:02:11.231Z,6.54
2023-05-13T01:04:45.664Z,6.54
2023-05-13T01:07:23.593Z,6.58
2023-05-13T01:10:00.015Z,6.59
2023-05-13T01:12:33.625Z,6.58
2023-05-13T01:15:07.240Z,6.58
2023-05-13T01:17:42.629Z,6.55
2023-05-13T01:20:12.463Z,6.56
2023-05-13T01:22:41.797Z,6.54
2023-05-13T01:25:10.530Z,6.50
2023-05-13T01:27:38.942Z,6.53
2023-05-13T01:30:08.885Z,6.52
2023-05-13T01:32:38.451Z,6.50
2023-05-13T01:35:08.656Z,6.48
2023-05-13T01:37:42.806Z,6.48
2023-05-13T01:40:24.174Z,6.47
2023-05-13T01:43:02.194Z,6.46
2023-05-13T01:45:30.817Z,6.43
2023-05-13T01:48:00.124Z,6.44
2023-05-13T01:50:36.321Z,6.43
2023-05-13T01:53:05.747Z,6.42
2023-05-13T01:55:33.855Z,6.38
2023-05-13T01:58:04.733Z,6.36
2023-05-13T02:00:33.079Z,6.33
2023-05-13T02:03:01.222Z,6.32
2023-05-13T02:05:31.693Z,6.32
2023-05-13T02:08:02.442Z,6.31
2023-05-13T02:10:33.748Z,6.32
2023-05-13T02:13:02.468Z,6.31
2023-05-13T02:15:30.511Z,6.33
2023-05-13T02:17:58.870Z,6.30
2023-05-13T02:20:27.435Z,6.26
2023-05-13T02:22:55.748Z,6.25
2023-05-13T02:25:23.918Z,6.26
2023-05-13T02:27:53.557Z,6.24
2023-05-13T02:30:22.288Z,6.24
2023-05-13T02:32:50.835Z,6.24
2023-05-13T02:35:19.181Z,6.24
2023-05-13T02:37:47.936Z,6.24
2023-05-13T02:40:17.321Z,6.21
2023-05-13T02:42:47.310Z,6.21
2023-05-13T02:45:19.937Z,6.18
2023-05-13T02:47:53.533Z,6.17
2023-05-13T02:50:21.872Z,6.14
2023-05-13T02:52:50.364Z,6.11
2023-05-13T02:55:18.803Z,6.12
2023-05-13T02:57:46.957Z,6.11
2023-05-13T03:00:16.131Z,6.12
2023-05-13T03:02:45.583Z,6.09
2023-05-13T03:05:13.687Z,6.10
2023-05-13T03:07:41.759Z,6.09
2023-05-13T03:10:10.545Z,6.06
2023-05-13T03:12:38.684Z,6.01
2023-05-13T03:15:08.007Z,6.01
2023-05-13T03:17:36.613Z,6.00
2023-05-13T03:20:07.089Z,5.97
2023-05-13T03:22:35.782Z,5.96
2023-05-13T03:25:04.767Z,5.96
2023-05-13T03:27:41.096Z,5.93
2023-05-13T03:30:11.177Z,5.93
2023-05-13T03:32:47.319Z,5.95
2023-05-13T03:35:17.328Z,5.97
2023-05-13T03:37:45.866Z,5.95
2023-05-13T03:40:15.466Z,5.96
2023-05-13T03:42:43.916Z,5.96
2023-05-13T03:45:12.647Z,6.00
2023-05-13T03:47:42.862Z,6.04
2023-05-13T03:50:17.331Z,6.03
2023-05-13T03:52:47.303Z,6.00
2023-05-13T03:55:17.148Z,6.04
2023-05-13T03:57:49.627Z,6.04
2023-05-13T04:00:20.773Z,6.06
2023-05-13T04:02:50.105Z,6.04
2023-05-13T04:05:19.838Z,6.05
2023-05-13T04:07:47.961Z,6.05
2023-05-13T04:10:16.161Z,6.04
2023-05-13T04:12:44.399Z,6.04
2023-05-13T04:15:12.640Z,6.06
2023-05-13T04:17:41.947Z,6.06
2023-05-13T04:20:10.895Z,6.06
2023-05-13T04:22:40.354Z,6.08
2023-05-13T04:25:08.853Z,6.07
2023-05-13T04:27:37.006Z,6.05
2023-05-13T04:30:13.539Z,6.05
2023-05-13T04:32:43.194Z,6.07
2023-05-13T04:35:13.008Z,6.05
2023-05-13T04:37:44.922Z,6.04
2023-05-13T04:40:16.265Z,6.04
2023-05-13T04:42:44.382Z,6.07
2023-05-13T04:45:12.705Z,6.07
2023-05-13T04:47:40.860Z,6.09
2023-05-13T04:50:09.413Z,6.08
2023-05-13T04:52:37.852Z,6.04
2023-05-13T04:55:08.220Z,6.04
2023-05-13T04:57:36.449Z,6.05
2023-05-13T05:00:06.263Z,6.04
2023-05-13T05:02:36.309Z,6.04
2023-05-13T05:05:05.242Z,6.06
2023-05-13T05:07:34.614Z,6.07
2023-05-13T05:10:03.145Z,6.06
2023-05-13T05:12:34.120Z,6.04
2023-05-13T05:15:02.243Z,6.01
2023-05-13T05:17:32.920Z,5.99
2023-05-13T05:20:04.579Z,5.92
2023-05-13T05:22:32.707Z,5.89
2023-05-13T05:25:00.898Z,5.87
2023-05-13T05:27:29.081Z,5.87
2023-05-13T05:29:58.590Z,5.89
2023-05-13T05:32:26.878Z,5.91
2023-05-13T05:34:55.100Z,5.91
2023-05-13T05:37:23.205Z,5.91
2023-05-13T05:39:51.292Z,5.93
2023-05-13T05:42:19.498Z,5.96
2023-05-13T05:44:47.700Z,5.95
2023-05-13T05:47:17.310Z,5.93
2023-05-13T05:49:46.434Z,5.87
2023-05-13T05:52:14.599Z,5.85
2023-05-13T05:54:42.715Z,5.84
2023-05-13T05:57:10.853Z,5.86
2023-05-13T05:59:38.850Z,5.85
2023-05-13T06:02:07.589Z,5.86
2023-05-13T06:04:38.290Z,5.85
2023-05-13T06:07:07.455Z,5.84
2023-05-13T06:09:35.591Z,5.83
2023-05-13T06:12:04.766Z,5.83
2023-05-13T06:14:34.043Z,5.79
2023-05-13T06:17:02.201Z,5.76
2023-05-13T06:19:31.017Z,5.78
2023-05-13T06:22:02.583Z,5.82
2023-05-13T06:24:32.021Z,5.87
2023-05-13T06:27:00.051Z,5.89
2023-05-13T06:29:28.199Z,5.93
2023-05-13T06:31:56.220Z,5.93
2023-05-13T06:34:24.333Z,5.96
2023-05-13T06:36:52.433Z,5.96
2023-05-13T06:39:22.080Z,5.98
2023-05-13T06:41:50.285Z,5.99
2023-05-13T06:44:18.427Z,5.99
2023-05-13T06:46:48.149Z,6.00
2023-05-13T06:49:16.302Z,6.05
2023-05-13T06:51:44.432Z,6.06
2023-05-13T06:54:12.575Z,6.07
2023-05-13T06:56:42.053Z,6.11
2023-05-13T06:59:10.381Z,6.09
2023-05-13T07:01:38.616Z,6.11
2023-05-13T07:04:07.014Z,6.10
2023-05-13T07:06:35.959Z,6.05
2023-05-13T07:09:08.112Z,6.04
2023-05-13T07:11:36.968Z,5.99
2023-05-13T07:14:06.279Z,5.95
2023-05-13T07:16:34.370Z,5.91
2023-05-13T07:19:02.567Z,5.88
2023-05-13T07:21:31.628Z,5.88
2023-05-13T07:23:59.767Z,5.92
2023-05-13T07:26:27.917Z,5.97
2023-05-13T07:28:55.995Z,5.92
2023-05-13T07:31:25.575Z,5.91
2023-05-13T07:33:53.663Z,5.92
2023-05-13T07:36:22.449Z,5.94
2023-05-13T07:38:50.867Z,6.00
2023-05-13T07:41:18.927Z,6.07
2023-05-13T07:43:46.957Z,6.14
2023-05-13T07:46:15.058Z,6.13
2023-05-13T07:48:44.365Z,6.12
2023-05-13T07:51:12.607Z,6.16
2023-05-13T07:53:40.640Z,6.21
2023-05-13T07:56:08.818Z,6.19
2023-05-13T07:58:37.355Z,6.23
2023-05-13T08:01:06.169Z,6.21
2023-05-13T08:03:34.297Z,6.23
2023-05-13T08:06:03.981Z,6.24
2023-05-13T08:08:32.116Z,6.25
2023-05-13T08:11:00.396Z,6.23
2023-05-13T08:13:28.588Z,6.23
2023-05-13T08:15:56.717Z,6.23
2023-05-13T08:18:24.845Z,6.23
2023-05-13T08:20:52.925Z,6.29
2023-05-13T08:23:28.319Z,6.34
2023-05-13T08:26:05.376Z,6.31
2023-05-13T08:28:33.470Z,6.28
2023-05-13T08:31:02.858Z,6.24
2023-05-13T08:33:31.452Z,6.26
2023-05-13T08:36:01.176Z,6.29
2023-05-13T08:38:30.599Z,6.30
2023-05-13T08:40:58.828Z,6.32
2023-05-13T08:43:30.586Z,6.24
2023-05-13T08:46:01.813Z,6.22
2023-05-13T08:48:30.309Z,6.23
2023-05-13T08:50:58.727Z,6.30
2023-05-13T08:53:27.757Z,6.34
2023-05-13T08:55:58.172Z,6.33
2023-05-13T08:58:26.419Z,6.34
2023-05-13T09:00:54.682Z,6.30
2023-05-13T09:03:23.040Z,6.36
2023-05-13T09:05:51.044Z,6.41
2023-05-13T09:08:19.224Z,6.38
2023-05-13T09:10:47.602Z,6.35
2023-05-13T09:13:19.099Z,6.35
2023-05-13T09:15:47.843Z,6.34
2023-05-13T09:18:18.649Z,6.39
2023-05-13T09:20:48.104Z,6.50
2023-05-13T09:23:16.977Z,6.57
2023-05-13T09:25:45.142Z,6.66
2023-05-13T09:28:17.075Z,6.68
2023-05-13T09:30:46.863Z,6.71
2023-05-13T09:33:16.561Z,6.75
2023-05-13T09:35:45.905Z,6.74
2023-05-13T09:38:16.112Z,6.78
2023-05-13T09:40:51.972Z,6.76
2023-05-13T09:43:22.840Z,6.77
2023-05-13T09:45:54.363Z,6.78
2023-05-13T09:48:23.633Z,6.79
2023-05-13T09:50:52.565Z,6.81
2023-05-13T09:53:21.729Z,6.82
2023-05-13T09:55:50.940Z,6.80
2023-05-13T09:58:20.364Z,6.78
2023-05-13T10:00:49.954Z,6.78
2023-05-13T10:03:18.076Z,6.70
2023-05-13T10:05:46.567Z,6.72
2023-05-13T10:08:15.823Z,6.76
2023-05-13T10:10:46.026Z,6.77
2023-05-13T10:13:16.184Z,6.82
2023-05-13T10:15:51.586Z,6.89
2023-05-13T10:18:21.507Z,6.96
2023-05-13T10:20:53.174Z,7.00
2023-05-13T10:23:23.803Z,7.07
2023-05-13T10:25:53.187Z,7.12
2023-05-13T10:28:21.808Z,7.18
2023-05-13T10:30:52.518Z,7.19
2023-05-13T10:33:21.674Z,7.23
2023-05-13T10:36:03.050Z,7.28
2023-05-13T10:38:45.264Z,7.27
2023-05-13T10:41:28.171Z,7.28
2023-05-13T10:43:59.184Z,7.36
2023-05-13T10:46:28.710Z,7.44
2023-05-13T10:48:59.438Z,7.49
2023-05-13T10:51:28.137Z,7.57
2023-05-13T10:53:59.198Z,7.59
2023-05-13T10:56:29.089Z,7.65
2023-05-13T10:59:01.388Z,7.68
2023-05-13T11:01:32.218Z,7.70
2023-05-13T11:04:01.982Z,7.77
2023-05-13T11:06:33.031Z,7.84
2023-05-13T11:09:01.250Z,7.88
2023-05-13T11:11:34.184Z,7.96
2023-05-13T11:14:10.496Z,8.02
2023-05-13T11:16:40.055Z,8.01
2023-05-13T11:19:19.472Z,8.11
2023-05-13T11:21:51.373Z,8.23
2023-05-13T11:24:20.904Z,8.37
2023-05-13T11:26:52.800Z,8.44
2023-05-13T11:29:40.209Z,8.41
2023-05-13T11:32:09.695Z,8.41
2023-05-13T11:34:38.046Z,8.48
2023-05-13T11:37:09.755Z,8.53
2023-05-13T11:39:41.091Z,8.56
2023-05-13T11:42:10.351Z,8.52
2023-05-13T11:44:46.926Z,8.51
2023-05-13T11:47:26.399Z,8.56
2023-05-13T11:49:54.617Z,8.53
2023-05-13T11:52:22.667Z,8.54
2023-05-13T11:54:53.473Z,8.51
2023-05-13T11:57:23.661Z,8.51
2023-05-13T11:59:54.212Z,8.48
2023-05-13T12:02:25.018Z,8.56
2023-05-13T12:04:53.690Z,8.59
2023-05-13T12:07:23.293Z,8.61
2023-05-13T12:09:51.788Z,8.61
2023-05-13T12:12:20.958Z,8.66
2023-05-13T12:14:51.121Z,8.78
2023-05-13T12:17:20.081Z,8.79
2023-05-13T12:20:08.600Z,8.76
2023-05-13T12:22:37.683Z,8.71
2023-05-13T12:25:38.956Z,8.73
2023-05-13T12:28:09.496Z,8.86
2023-05-13T12:30:39.474Z,8.92
2023-05-13T12:33:13.216Z,8.85
2023-05-13T12:35:42.358Z,8.84
2023-05-13T12:38:16.124Z,8.91
2023-05-13T12:40:44.439Z,8.98
2023-05-13T12:43:13.288Z,9.10
2023-05-13T12:45:45.200Z,9.20
2023-05-13T12:48:14.534Z,9.38
2023-05-13T12:50:43.955Z,9.44
2023-05-13T12:53:12.673Z,9.69
2023-05-13T12:55:40.908Z,9.92
2023-05-13T12:58:12.025Z,10.14
2023-05-13T13:00:40.397Z,9.97
2023-05-13T13:03:08.868Z,9.86
2023-05-13T13:05:37.294Z,10.09
2023-05-13T13:08:06.946Z,10.21
2023-05-13T13:10:34.974Z,10.36
2023-05-13T13:13:03.136Z,10.32
2023-05-13T13:15:31.461Z,10.74
2023-05-13T13:17:59.556Z,11.19
2023-05-13T13:20:27.681Z,11.04
2023-05-13T13:22:55.873Z,10.66
2023-05-13T13:25:25.325Z,10.41
2023-05-13T13:27:53.456Z,11.13
2023-05-13T13:30:21.601Z,11.38
2023-05-13T13:32:49.886Z,11.18
2023-05-13T13:35:18.019Z,10.76
2023-05-13T13:37:46.299Z,10.95
2023-05-13T13:40:15.128Z,11.10
2023-05-13T13:42:45.183Z,10.81
2023-05-13T13:45:14.523Z,10.90
2023-05-13T13:47:43.504Z,10.87
2023-05-13T13:50:12.692Z,10.71
2023-05-13T13:52:40.896Z,10.78
2023-05-13T13:55:11.619Z,11.56
2023-05-13T13:57:39.947Z,11.51
2023-05-13T14:00:10.363Z,11.27
2023-05-13T14:02:38.710Z,10.99
2023-05-13T14:05:07.644Z,10.67
2023-05-13T14:07:36.643Z,10.55
2023-05-13T14:10:05.581Z,11.06
2023-05-13T14:12:33.954Z,11.93
2023-05-13T14:15:02.052Z,12.44
2023-05-13T14:17:31.591Z,12.08
2023-05-13T14:19:59.781Z,11.50
2023-05-13T14:22:28.036Z,11.51
2023-05-13T14:24:56.269Z,11.91
2023-05-13T14:27:24.685Z,12.52
2023-05-13T14:29:53.320Z,12.36
2023-05-13T14:32:21.614Z,12.02
2023-05-13T14:34:51.004Z,12.03
2023-05-13T14:37:19.096Z,12.30
2023-05-13T14:39:49.962Z,12.72
2023-05-13T14:42:19.424Z,12.59
2023-05-13T14:44:47.620Z,12.48
2023-05-13T14:47:15.979Z,12.59
2023-05-13T14:49:44.018Z,12.57
2023-05-13T14:52:13.393Z,12.65
2023-05-13T14:54:41.496Z,12.60
2023-05-13T14:57:09.645Z,12.27
2023-05-13T14:59:37.860Z,12.10
2023-05-13T15:02:06.289Z,12.23
2023-05-13T15:04:34.423Z,12.17
2023-05-13T15:07:03.655Z,12.17
2023-05-13T15:09:33.125Z,12.26
2023-05-13T15:12:01.232Z,12.40
2023-05-13T15:14:29.396Z,12.39
2023-05-13T15:16:57.985Z,12.33
2023-05-13T15:19:26.092Z,11.96
2023-05-13T15:21:54.336Z,11.62
2023-05-13T15:24:22.448Z,11.63
2023-05-13T15:26:51.896Z,11.77
2023-05-13T15:29:20.086Z,11.98
2023-05-13T15:31:51.084Z,12.07
2023-05-13T15:34:19.209Z,12.12
2023-05-13T15:36:47.346Z,11.86
2023-05-13T15:39:16.602Z,11.62
2023-05-13T15:41:44.809Z,11.69
2023-05-13T15:44:14.426Z,11.78
2023-05-13T15:46:42.756Z,11.80
2023-05-13T15:49:10.934Z,11.75
2023-05-13T15:51:39.091Z,11.71
2023-05-13T15:54:07.270Z,11.72
2023-05-13T15:56:35.548Z,11.78
2023-05-13T15:59:03.707Z,11.69
2023-05-13T16:01:33.262Z,11.63
2023-05-13T16:04:01.383Z,11.46
2023-05-13T16:06:29.573Z,11.28
2023-05-13T16:08:57.665Z,11.25
2023-05-13T16:11:25.865Z,11.33
2023-05-13T16:13:53.947Z,11.51
2023-05-13T16:16:22.209Z,11.64
2023-05-13T16:18:52.215Z,11.65
2023-05-13T16:21:20.897Z,11.63
2023-05-13T16:23:51.024Z,11.65
2023-05-13T16:26:19.329Z,11.67
2023-05-13T16:28:47.381Z,11.59
2023-05-13T16:31:15.822Z,11.45
2023-05-13T16:33:43.986Z,11.36
2023-05-13T16:36:13.430Z,11.40
2023-05-13T16:38:42.303Z,11.54
2023-05-13T16:41:10.692Z,11.56
2023-05-13T16:43:38.796Z,11.45
2023-05-13T16:46:06.996Z,11.30
2023-05-13T16:48:35.127Z,11.18
2023-05-13T16:51:04.765Z,11.09
2023-05-13T16:53:34.697Z,11.13
2023-05-13T16:56:02.944Z,11.32
2023-05-13T16:58:30.961Z,11.50
2023-05-13T17:00:59.671Z,11.46
2023-05-13T17:03:28.065Z,11.26
2023-05-13T17:05:56.245Z,11.07
2023-05-13T17:08:24.489Z,10.93
2023-05-13T17:10:54.003Z,10.91
2023-05-13T17:13:22.255Z,11.03
2023-05-13T17:15:50.496Z,11.17
2023-05-13T17:18:18.568Z,11.32
2023-05-13T17:20:46.863Z,11.30
2023-05-13T17:23:17.266Z,11.21
2023-05-13T17:25:45.565Z,11.10
2023-05-13T17:28:14.907Z,11.10
2023-05-13T17:30:43.400Z,11.16
2023-05-13T17:33:11.581Z,11.17
2023-05-13T17:35:39.926Z,11.15
2023-05-13T17:38:07.975Z,11.12
2023-05-13T17:40:36.589Z,11.07
2023-05-13T17:43:04.803Z,11.01
2023-05-13T17:45:35.689Z,10.88
2023-05-13T17:48:04.290Z,10.78
2023-05-13T17:50:32.567Z,10.72
2023-05-13T17:53:01.177Z,10.64
2023-05-13T17:55:29.280Z,10.59
2023-05-13T17:57:58.950Z,10.53
2023-05-13T18:00:27.344Z,10.50
2023-05-13T18:02:56.776Z,10.46
2023-05-13T18:05:24.858Z,10.43
2023-05-13T18:07:52.972Z,10.43
2023-05-13T18:10:21.761Z,10.44
2023-05-13T18:12:51.803Z,10.45
2023-05-13T18:15:20.122Z,10.42
2023-05-13T18:17:48.383Z,10.34
2023-05-13T18:20:17.832Z,10.30
2023-05-13T18:22:46.077Z,10.23
2023-05-13T18:25:14.128Z,10.17
2023-05-13T18:27:42.281Z,10.12
2023-05-13T18:30:11.177Z,10.07
2023-05-13T18:32:39.326Z,10.02
2023-05-13T18:35:07.847Z,9.96
2023-05-13T18:37:38.055Z,9.90
2023-05-13T18:40:07.002Z,9.83
2023-05-13T18:42:35.028Z,9.79
2023-05-13T18:45:03.299Z,9.73
2023-05-13T18:47:31.547Z,9.70
2023-05-13T18:49:59.934Z,9.66
2023-05-13T18:52:28.077Z,9.61
2023-05-13T18:54:57.509Z,9.55
2023-05-13T18:57:25.558Z,9.49
2023-05-13T18:59:53.651Z,9.42
2023-05-13T19:02:21.806Z,9.36
2023-05-13T19:04:50.095Z,9.31
2023-05-13T19:07:18.208Z,9.21
2023-05-13T19:09:47.916Z,9.09
2023-05-13T19:12:17.357Z,8.97
2023-05-13T19:14:45.566Z,8.89
2023-05-13T19:17:13.990Z,8.85
2023-05-13T19:19:43.115Z,8.85
2023-05-13T19:22:29.779Z,8.80
2023-05-13T19:24:57.903Z,8.74
2023-05-13T19:27:27.365Z,8.67
2023-05-13T19:29:55.560Z,8.64
2023-05-13T19:32:24.177Z,8.58
2023-05-13T19:34:52.465Z,8.50
2023-05-13T19:37:20.521Z,8.41
2023-05-13T19:39:48.638Z,8.32
2023-05-13T19:42:17.016Z,8.24
2023-05-13T19:44:46.559Z,8.13
2023-05-13T19:47:14.669Z,8.06
2023-05-13T19:49:43.057Z,8.02
2023-05-13T19:52:11.235Z,7.98
2023-05-13T19:54:39.418Z,7.88
2023-05-13T19:57:08.058Z,7.74
2023-05-13T19:59:39.374Z,7.62
2023-05-13T20:02:09.294Z,7.50
2023-05-13T20:04:37.507Z,7.43
2023-05-13T20:07:07.380Z,7.36
2023-05-13T20:09:37.659Z,7.30
2023-05-13T20:12:06.402Z,7.24
2023-05-13T20:14:44.948Z,7.15
2023-05-13T20:17:17.938Z,7.04
2023-05-13T20:19:47.323Z,6.96
2023-05-13T20:22:16.439Z,6.88
2023-05-13T20:24:46.518Z,6.79
2023-05-13T20:27:14.622Z,6.65
2023-05-13T20:29:44.667Z,6.50
2023-05-13T20:32:14.885Z,6.40
2023-05-13T20:34:43.544Z,6.30
2023-05-13T20:37:11.714Z,6.19
2023-05-13T20:39:39.865Z,6.11
2023-05-13T20:42:08.105Z,6.04
2023-05-13T20:44:36.887Z,6.00
2023-05-13T20:47:05.302Z,5.96
2023-05-13T20:49:35.175Z,5.96
2023-05-13T20:52:06.301Z,5.99
2023-05-13T20:54:36.560Z,6.01
2023-05-13T20:57:04.850Z,6.05
2023-05-13T20:59:32.968Z,6.05
2023-05-13T21:02:01.054Z,6.08
2023-05-13T21:04:29.268Z,6.10
2023-05-13T21:06:58.689Z,6.18
2023-05-13T21:09:26.985Z,6.18
2023-05-13T21:11:55.000Z,6.11
2023-05-13T21:14:23.285Z,6.05
2023-05-13T21:16:51.531Z,6.02
2023-05-13T21:19:21.699Z,5.96
2023-05-13T21:21:49.766Z,5.87
2023-05-13T21:24:20.266Z,5.81
2023-05-13T21:26:49.178Z,5.77
2023-05-13T21:29:18.978Z,5.78
2023-05-13T21:31:48.069Z,5.80
2023-05-13T21:34:16.284Z,5.79
2023-05-13T21:36:44.505Z,5.72
2023-05-13T21:39:12.754Z,5.71
2023-05-13T21:41:42.366Z,5.72
2023-05-13T21:44:10.489Z,5.73
2023-05-13T21:46:38.620Z,5.66
2023-05-13T21:49:06.781Z,5.58
2023-05-13T21:51:34.924Z,5.50
2023-05-13T21:54:02.984Z,5.46
2023-05-13T21:56:31.151Z,5.41
2023-05-13T21:59:00.607Z,5.41
2023-05-13T22:01:28.893Z,5.37
2023-05-13T22:03:56.962Z,5.32
2023-05-13T22:06:25.204Z,5.23
2023-05-13T22:08:53.293Z,5.18
2023-05-13T22:11:22.066Z,5.07
2023-05-13T22:13:50.173Z,4.99
2023-05-13T22:16:19.777Z,4.97
2023-05-13T22:18:48.087Z,4.93
2023-05-13T22:21:16.363Z,4.92
2023-05-13T22:23:44.364Z,4.82
2023-05-13T22:26:12.564Z,4.77
2023-05-13T22:28:40.658Z,4.78
2023-05-13T22:31:09.368Z,4.83
2023-05-13T22:33:38.807Z,4.87
2023-05-13T22:36:07.069Z,4.86
2023-05-13T22:38:35.157Z,4.84
2023-05-13T22:41:03.315Z,4.78
2023-05-13T22:43:31.511Z,4.71
2023-05-13T22:45:59.688Z,4.64
2023-05-13T22:48:27.888Z,4.57
2023-05-13T22:50:58.411Z,4.52
2023-05-13T22:53:26.513Z,4.47
2023-05-13T22:55:54.706Z,4.30
2023-05-13T22:58:23.009Z,4.17
2023-05-13T23:00:51.411Z,4.16
2023-05-13T23:03:19.568Z,4.18
2023-05-13T23:05:47.696Z,4.22
2023-05-13T23:08:17.104Z,4.20
2023-05-13T23:10:45.133Z,4.26
2023-05-13T23:13:13.205Z,4.28
2023-05-13T23:15:41.343Z,4.25
2023-05-13T23:18:09.526Z,4.21
2023-05-13T23:20:37.613Z,4.27
2023-05-13T23:23:05.726Z,4.23
2023-05-13T23:25:35.142Z,4.22
2023-05-13T23:28:03.277Z,4.24
2023-05-13T23:30:31.508Z,4.27
2023-05-13T23:32:59.676Z,4.27
2023-05-13T23:35:27.828Z,4.27
2023-05-13T23:37:55.974Z,4.25
2023-05-13T23:40:24.376Z,4.21
2023-05-13T23:42:54.092Z,4.13
2023-05-13T23:45:22.163Z,4.08
2023-05-13T23:47:51.449Z,4.02
2023-05-13T23:50:19.627Z,3.97
2023-05-13T23:52:51.236Z,3.91
2023-05-13T23:55:20.378Z,3.80
2023-05-13T23:57:49.216Z,3.69
